Main page
METAR-TAF:

METAR-TAF

Airports :

Passo Rolle, Italy

latitude: 46-18N, longitude: 011-47E, elevation: 2004 m

Current weather observation

The report was made 3 hours and 4 minutes ago, at 20:55 UTC
Wind 10 kt from the South/Southeast
Temperature 9°C
Humidity 100%
Pressure 1022 hPa
Visibility: 0300 m
light rain, fog

METAR: LIVR 202055Z 15010KT 0300 -RA FG VV/// 09/09 Q1022 RMK MON INVIS VIS MIN 0300

Time: 01:59 (23:59 UTC)


TAF: missing

Weather observations and forecasts of more than 4000 airports (METAR and TAF reports).

The available stations are represented by yellow and red dots on the map.

Hover mouse over dot to see the name of the station.

Then click to see weather observations and forecasts.

To change the map : click on the green buttons with a black cross to zoom in, on the green button with a dash to zoom out, or on the green arrows for adjacent maps.


METAR-TAF: